KMNV

Details ICAO KMNV
Name MONROE CO
Region United States
Timezone America/New_York (UTC-5.0)
Plans Departing 3
Arriving 3
Stats Elevation 1,031 ft / 314 m (AMSL)
Location 35.545296° -84.380311°
Runways 1
Magnetic Variation 5.399° W
Sunrise 2017-12-17 12:42:23 UTC / 2017-12-17 07:42:23 Local
Sunset 2017-12-17 22:27:52 UTC / 2017-12-17 17:27:52 Local
Advertisement - Login to hide

Runways

ID Width Length Bearing (true) Bearing (mag) Surface Threshold Offset Overrun Length
05 75 ft / 23 m 3,502 ft / 1,067 m 43.67° 49.07° Asphalt 0 ft / 0 m 0 ft / 0 m
23 75 ft / 23 m 3,502 ft / 1,067 m 223.67° 229.07° Asphalt 0 ft / 0 m 0 ft / 0 m

Map

Weather


0- 5 10 15 20 25 30 35+ Temperature / ° C

Clouds and Precipitation
Forecast for 2017-12-17 18:00 UTC. Updated 27 minutes ago

Ground ~20,000 ft ~40,000 ft Winds

METAR

KMNV 171535Z AUTO 00000KT 10SM FEW065 OVC085 03/00 A3027 RMK A01

TAF

Not found

Frequencies

Recorded 118.47 MHz AWOS 3
Approach 123.90 MHz KNOXVILLE APP/DEP
Unicom 123.00 MHz CTAF/UNICOM
Warning: Do not use this data for real-world aviation or navigation. No guarantee of current accuracy is given.